createdAt,value
2018-04-28T00:00:34.000Z,30
2018-04-28T00:01:34.000Z,30
2018-04-28T00:02:34.000Z,30
2018-04-28T00:03:34.000Z,30
2018-04-28T00:04:34.000Z,30
2018-04-28T00:05:34.000Z,30
2018-04-28T00:06:34.000Z,30
2018-04-28T00:07:34.000Z,30
2018-04-28T00:08:34.000Z,30
2018-04-28T00:09:34.000Z,30
2018-04-28T00:10:34.000Z,30
2018-04-28T00:11:34.000Z,30
2018-04-28T00:12:34.000Z,30
2018-04-28T00:13:34.000Z,30
2018-04-28T00:14:34.000Z,30
2018-04-28T00:15:34.000Z,30
2018-04-28T00:16:34.000Z,30
2018-04-28T00:17:34.000Z,30
2018-04-28T00:19:34.000Z,30
2018-04-28T00:20:34.000Z,30
2018-04-28T00:21:34.000Z,30
2018-04-28T00:22:34.000Z,30
2018-04-28T00:23:34.000Z,30
2018-04-28T00:24:34.000Z,30
2018-04-28T00:25:34.000Z,30
2018-04-28T00:26:34.000Z,30
2018-04-28T00:27:34.000Z,30
2018-04-28T00:28:34.000Z,30
2018-04-28T00:29:34.000Z,30
2018-04-28T00:30:34.000Z,30
2018-04-28T00:31:34.000Z,30
2018-04-28T00:32:34.000Z,30
2018-04-28T00:33:34.000Z,30
2018-04-28T00:34:34.000Z,30
2018-04-28T00:35:34.000Z,30
2018-04-28T00:36:34.000Z,30
2018-04-28T00:37:34.000Z,30
2018-04-28T00:38:34.000Z,30
2018-04-28T00:40:34.000Z,30
2018-04-28T00:42:34.000Z,30
2018-04-28T00:43:34.000Z,30
2018-04-28T00:44:34.000Z,30
2018-04-28T00:45:34.000Z,31
2018-04-28T00:46:34.000Z,30
2018-04-28T00:47:34.000Z,30
2018-04-28T00:48:34.000Z,30
2018-04-28T00:49:34.000Z,30
2018-04-28T00:50:34.000Z,30
2018-04-28T00:51:34.000Z,30
2018-04-28T00:52:34.000Z,30
2018-04-28T00:53:34.000Z,30
2018-04-28T00:54:34.000Z,30
2018-04-28T00:55:34.000Z,31
2018-04-28T00:56:34.000Z,30
2018-04-28T00:57:34.000Z,31
2018-04-28T00:58:34.000Z,31
2018-04-28T00:59:34.000Z,31
2018-04-28T01:00:34.000Z,30
2018-04-28T01:01:34.000Z,31
2018-04-28T01:02:34.000Z,31
2018-04-28T01:03:34.000Z,31
2018-04-28T01:04:34.000Z,30
2018-04-28T01:05:34.000Z,31
2018-04-28T01:06:34.000Z,31
2018-04-28T01:07:34.000Z,31
2018-04-28T01:09:34.000Z,30
2018-04-28T01:10:34.000Z,31
2018-04-28T01:11:34.000Z,31
2018-04-28T01:12:34.000Z,31
2018-04-28T01:13:34.000Z,31
2018-04-28T01:15:34.000Z,31
2018-04-28T01:16:34.000Z,31
2018-04-28T01:17:34.000Z,31
2018-04-28T01:18:34.000Z,31
2018-04-28T01:19:34.000Z,31
2018-04-28T01:20:34.000Z,31
2018-04-28T01:21:34.000Z,31
2018-04-28T01:22:34.000Z,31
2018-04-28T01:23:34.000Z,31
2018-04-28T01:24:34.000Z,31
2018-04-28T01:25:34.000Z,31
2018-04-28T01:27:34.000Z,31
2018-04-28T01:28:34.000Z,31
2018-04-28T01:30:34.000Z,31
2018-04-28T01:31:34.000Z,31
2018-04-28T01:32:34.000Z,31
2018-04-28T01:34:34.000Z,31
2018-04-28T01:35:34.000Z,32
2018-04-28T01:36:34.000Z,31
2018-04-28T01:37:34.000Z,32
2018-04-28T01:38:34.000Z,32
2018-04-28T01:39:34.000Z,32
2018-04-28T01:40:34.000Z,32
2018-04-28T01:41:34.000Z,32
2018-04-28T01:42:34.000Z,32
2018-04-28T01:43:34.000Z,32
2018-04-28T01:44:34.000Z,32
2018-04-28T01:45:34.000Z,32
2018-04-28T01:46:34.000Z,32
2018-04-28T01:47:34.000Z,32
2018-04-28T01:48:34.000Z,32
2018-04-28T01:50:34.000Z,32
2018-04-28T01:51:34.000Z,32
2018-04-28T01:52:34.000Z,32
2018-04-28T01:53:34.000Z,32
2018-04-28T01:54:34.000Z,32
2018-04-28T01:55:34.000Z,32
2018-04-28T01:56:34.000Z,32
2018-04-28T01:57:34.000Z,32
2018-04-28T01:58:34.000Z,32
2018-04-28T01:59:33.000Z,32
2018-04-28T02:00:33.000Z,32
2018-04-28T02:01:33.000Z,32
2018-04-28T02:02:33.000Z,32
2018-04-28T02:03:33.000Z,32
2018-04-28T02:04:33.000Z,32
2018-04-28T02:05:33.000Z,32
2018-04-28T02:06:33.000Z,32
2018-04-28T02:07:33.000Z,32
2018-04-28T02:08:33.000Z,32
2018-04-28T02:09:33.000Z,32
2018-04-28T02:10:33.000Z,32
2018-04-28T02:11:33.000Z,32
2018-04-28T02:12:33.000Z,32
2018-04-28T02:13:33.000Z,32
2018-04-28T02:14:33.000Z,32
2018-04-28T02:16:33.000Z,32
2018-04-28T02:18:33.000Z,32
2018-04-28T02:20:33.000Z,32
2018-04-28T02:21:33.000Z,32
2018-04-28T02:22:33.000Z,33
2018-04-28T02:23:33.000Z,32
2018-04-28T02:24:33.000Z,33
2018-04-28T02:25:33.000Z,33
2018-04-28T02:26:33.000Z,33
2018-04-28T02:27:33.000Z,33
2018-04-28T02:28:33.000Z,33
2018-04-28T02:29:33.000Z,33
2018-04-28T02:30:33.000Z,33
2018-04-28T02:31:33.000Z,33
2018-04-28T02:32:33.000Z,33
2018-04-28T02:33:33.000Z,33
2018-04-28T02:37:19.000Z,33
2018-04-28T02:38:19.000Z,33
2018-04-28T02:39:19.000Z,33
2018-04-28T02:40:19.000Z,33
2018-04-28T02:41:19.000Z,33
2018-04-28T02:42:19.000Z,33
2018-04-28T02:43:19.000Z,33
2018-04-28T02:44:19.000Z,33
2018-04-28T02:45:19.000Z,33
2018-04-28T02:47:19.000Z,33
2018-04-28T02:48:19.000Z,33
2018-04-28T02:49:19.000Z,33
2018-04-28T02:50:19.000Z,33
2018-04-28T02:51:19.000Z,33
2018-04-28T02:52:19.000Z,33
2018-04-28T02:53:19.000Z,33
2018-04-28T02:55:19.000Z,33
2018-04-28T02:57:19.000Z,33
2018-04-28T02:58:19.000Z,33
2018-04-28T02:59:19.000Z,33
2018-04-28T03:01:19.000Z,33
2018-04-28T03:02:19.000Z,33
2018-04-28T03:03:19.000Z,34
2018-04-28T03:04:19.000Z,33
2018-04-28T03:05:19.000Z,33
2018-04-28T03:06:19.000Z,33
2018-04-28T03:07:19.000Z,33
2018-04-28T03:08:19.000Z,33
2018-04-28T03:09:19.000Z,34
2018-04-28T03:10:19.000Z,34
2018-04-28T03:11:19.000Z,33
2018-04-28T03:12:19.000Z,33
2018-04-28T03:13:19.000Z,33
2018-04-28T03:14:19.000Z,33
2018-04-28T03:15:19.000Z,33
2018-04-28T03:17:19.000Z,33
2018-04-28T03:18:19.000Z,33
2018-04-28T03:19:19.000Z,33
2018-04-28T03:20:19.000Z,33
2018-04-28T03:21:19.000Z,33
2018-04-28T03:22:19.000Z,34
2018-04-28T03:23:19.000Z,34
2018-04-28T03:24:19.000Z,33
2018-04-28T03:25:19.000Z,33
2018-04-28T03:26:19.000Z,33
2018-04-28T03:27:19.000Z,33
2018-04-28T03:28:19.000Z,34
2018-04-28T03:29:19.000Z,33
2018-04-28T03:30:19.000Z,34
2018-04-28T03:31:19.000Z,33
2018-04-28T03:32:19.000Z,34
2018-04-28T03:33:19.000Z,33
2018-04-28T03:34:19.000Z,33
2018-04-28T03:36:19.000Z,33
2018-04-28T03:37:19.000Z,33
2018-04-28T03:38:19.000Z,33
2018-04-28T03:39:19.000Z,34
2018-04-28T03:40:19.000Z,34
2018-04-28T03:41:19.000Z,33
2018-04-28T03:42:19.000Z,34
2018-04-28T03:43:19.000Z,33
2018-04-28T03:44:19.000Z,34
2018-04-28T03:45:19.000Z,34
2018-04-28T03:46:19.000Z,34
2018-04-28T03:47:19.000Z,34
2018-04-28T03:48:19.000Z,33
2018-04-28T03:49:19.000Z,34
2018-04-28T03:50:19.000Z,34
2018-04-28T03:51:19.000Z,34
2018-04-28T03:53:19.000Z,33
2018-04-28T03:54:19.000Z,34
2018-04-28T03:55:19.000Z,34
2018-04-28T03:56:19.000Z,34
2018-04-28T03:57:19.000Z,34
2018-04-28T03:58:19.000Z,34
2018-04-28T03:59:19.000Z,34
2018-04-28T04:00:19.000Z,34
2018-04-28T04:01:19.000Z,34
2018-04-28T04:02:19.000Z,34
2018-04-28T04:03:19.000Z,34
2018-04-28T04:04:19.000Z,34
2018-04-28T04:05:19.000Z,34
2018-04-28T04:06:19.000Z,34
2018-04-28T04:07:20.000Z,34
2018-04-28T04:08:20.000Z,34
2018-04-28T04:09:20.000Z,34
2018-04-28T04:10:20.000Z,34
2018-04-28T04:11:20.000Z,34
2018-04-28T04:12:20.000Z,34
2018-04-28T04:13:20.000Z,34
2018-04-28T04:14:20.000Z,34
2018-04-28T04:15:20.000Z,34
2018-04-28T04:16:20.000Z,34
2018-04-28T04:18:20.000Z,34
2018-04-28T04:19:20.000Z,34
2018-04-28T04:20:20.000Z,34
2018-04-28T04:21:20.000Z,34
2018-04-28T04:22:20.000Z,34
2018-04-28T04:23:20.000Z,34
2018-04-28T04:24:20.000Z,34
2018-04-28T04:26:20.000Z,34
2018-04-28T04:27:20.000Z,34
2018-04-28T04:28:20.000Z,34
2018-04-28T04:29:20.000Z,34
2018-04-28T04:30:20.000Z,34
2018-04-28T04:31:20.000Z,34
2018-04-28T04:32:20.000Z,34
2018-04-28T04:33:20.000Z,34
2018-04-28T04:34:20.000Z,34
2018-04-28T04:35:20.000Z,34
2018-04-28T04:36:20.000Z,34
2018-04-28T04:37:20.000Z,34
2018-04-28T04:38:20.000Z,34
2018-04-28T04:39:20.000Z,34
2018-04-28T04:40:20.000Z,34
2018-04-28T04:41:20.000Z,34
2018-04-28T04:42:20.000Z,34
2018-04-28T04:44:20.000Z,34
2018-04-28T04:45:20.000Z,34
2018-04-28T04:46:20.000Z,34
2018-04-28T04:48:20.000Z,34
2018-04-28T04:49:20.000Z,34
2018-04-28T04:50:20.000Z,34
2018-04-28T04:51:20.000Z,34
2018-04-28T04:52:20.000Z,34
2018-04-28T04:53:20.000Z,34
2018-04-28T04:54:20.000Z,34
2018-04-28T04:55:20.000Z,34
2018-04-28T04:56:20.000Z,34
2018-04-28T04:57:20.000Z,35
2018-04-28T04:58:20.000Z,35
2018-04-28T04:59:20.000Z,34
2018-04-28T05:01:20.000Z,34
2018-04-28T05:02:20.000Z,34
2018-04-28T05:03:20.000Z,34
2018-04-28T05:04:20.000Z,35
2018-04-28T05:05:20.000Z,35
2018-04-28T05:06:20.000Z,34
2018-04-28T05:08:20.000Z,34
2018-04-28T05:09:20.000Z,35
2018-04-28T05:10:19.000Z,34
2018-04-28T05:11:19.000Z,35
2018-04-28T05:12:19.000Z,35
2018-04-28T05:13:19.000Z,35
2018-04-28T05:14:19.000Z,35
2018-04-28T05:15:19.000Z,35
2018-04-28T05:16:19.000Z,35
2018-04-28T05:17:19.000Z,35
2018-04-28T05:18:19.000Z,35
2018-04-28T05:19:19.000Z,35
2018-04-28T05:21:19.000Z,35
2018-04-28T05:22:19.000Z,35
2018-04-28T05:23:19.000Z,35
2018-04-28T05:24:19.000Z,35
2018-04-28T05:25:19.000Z,35
2018-04-28T05:26:19.000Z,35
2018-04-28T05:27:19.000Z,35
2018-04-28T05:28:19.000Z,35
2018-04-28T05:30:19.000Z,34
2018-04-28T05:31:19.000Z,35
2018-04-28T05:32:19.000Z,34
2018-04-28T05:34:19.000Z,34
2018-04-28T05:35:19.000Z,35
2018-04-28T05:37:19.000Z,35
2018-04-28T05:38:19.000Z,35
2018-04-28T05:39:19.000Z,35
2018-04-28T05:40:19.000Z,35
2018-04-28T05:41:19.000Z,35
2018-04-28T05:42:19.000Z,35
2018-04-28T05:43:19.000Z,35
2018-04-28T05:44:19.000Z,35
2018-04-28T05:45:19.000Z,35
2018-04-28T05:47:19.000Z,34
2018-04-28T05:48:19.000Z,35
2018-04-28T05:49:19.000Z,35
2018-04-28T05:50:19.000Z,35
2018-04-28T05:51:19.000Z,35
2018-04-28T05:52:19.000Z,35
2018-04-28T05:53:19.000Z,35
2018-04-28T05:54:19.000Z,35
2018-04-28T05:55:19.000Z,35
2018-04-28T05:56:19.000Z,34
2018-04-28T05:57:19.000Z,34
2018-04-28T05:58:19.000Z,34
2018-04-28T05:59:19.000Z,34
2018-04-28T06:00:19.000Z,34
2018-04-28T06:01:19.000Z,34
2018-04-28T06:02:19.000Z,34
2018-04-28T06:03:19.000Z,34
2018-04-28T06:04:19.000Z,34
2018-04-28T06:05:19.000Z,34
2018-04-28T06:07:19.000Z,34
2018-04-28T06:08:19.000Z,34
2018-04-28T06:09:19.000Z,34
2018-04-28T06:10:19.000Z,34
2018-04-28T06:11:19.000Z,34
2018-04-28T06:12:19.000Z,34
2018-04-28T06:13:19.000Z,34
2018-04-28T06:14:20.000Z,34
2018-04-28T06:15:20.000Z,34
2018-04-28T06:16:20.000Z,34
2018-04-28T06:17:20.000Z,34
2018-04-28T06:19:20.000Z,34
2018-04-28T06:20:20.000Z,34
2018-04-28T06:22:20.000Z,33
2018-04-28T06:23:20.000Z,33
2018-04-28T06:24:20.000Z,33
2018-04-28T06:25:20.000Z,33
2018-04-28T06:26:20.000Z,33
2018-04-28T06:27:20.000Z,33
2018-04-28T06:28:20.000Z,33
2018-04-28T06:29:20.000Z,33
2018-04-28T06:30:20.000Z,33
2018-04-28T06:31:20.000Z,33
2018-04-28T06:32:20.000Z,33
2018-04-28T06:33:20.000Z,33
2018-04-28T06:34:20.000Z,33
2018-04-28T06:35:20.000Z,33
2018-04-28T06:36:20.000Z,33
2018-04-28T06:37:20.000Z,33
2018-04-28T06:38:20.000Z,33
2018-04-28T06:39:20.000Z,33
2018-04-28T06:40:20.000Z,33
2018-04-28T06:41:20.000Z,32
2018-04-28T06:42:20.000Z,32
2018-04-28T06:43:20.000Z,33
2018-04-28T06:44:20.000Z,32
2018-04-28T06:45:20.000Z,32
2018-04-28T06:47:20.000Z,32
2018-04-28T06:48:20.000Z,32
2018-04-28T06:49:20.000Z,32
2018-04-28T06:50:20.000Z,32
2018-04-28T06:51:20.000Z,32
2018-04-28T06:52:20.000Z,32
2018-04-28T06:53:20.000Z,32
2018-04-28T06:54:20.000Z,32
2018-04-28T06:55:20.000Z,32
2018-04-28T06:56:20.000Z,32
2018-04-28T06:57:20.000Z,32
2018-04-28T06:59:20.000Z,32
2018-04-28T07:00:20.000Z,32
2018-04-28T07:01:20.000Z,32
2018-04-28T07:02:20.000Z,32
2018-04-28T07:03:20.000Z,32
2018-04-28T07:04:20.000Z,32
2018-04-28T07:05:20.000Z,32
2018-04-28T07:06:20.000Z,32
2018-04-28T07:07:20.000Z,32
2018-04-28T07:08:20.000Z,32
2018-04-28T07:09:20.000Z,31
2018-04-28T07:11:20.000Z,31
2018-04-28T07:12:20.000Z,31
2018-04-28T07:13:20.000Z,31
2018-04-28T07:14:20.000Z,31
2018-04-28T07:15:20.000Z,31
2018-04-28T07:16:20.000Z,31
2018-04-28T07:17:20.000Z,31
2018-04-28T07:19:20.000Z,31
2018-04-28T07:20:20.000Z,31
2018-04-28T07:21:20.000Z,31
2018-04-28T07:22:20.000Z,31
2018-04-28T07:23:20.000Z,31
2018-04-28T07:24:20.000Z,31
2018-04-28T07:25:20.000Z,31
2018-04-28T07:26:20.000Z,31
2018-04-28T07:28:20.000Z,31
2018-04-28T07:29:20.000Z,31
2018-04-28T07:30:20.000Z,31
2018-04-28T07:31:20.000Z,31
2018-04-28T07:32:20.000Z,31
2018-04-28T07:33:20.000Z,31
2018-04-28T07:34:20.000Z,31
2018-04-28T07:35:20.000Z,31
2018-04-28T07:36:20.000Z,31
2018-04-28T07:37:20.000Z,31
2018-04-28T07:38:20.000Z,31
2018-04-28T07:39:20.000Z,31
2018-04-28T07:41:20.000Z,31
2018-04-28T07:42:20.000Z,31
2018-04-28T07:43:20.000Z,31
2018-04-28T07:44:20.000Z,31
2018-04-28T07:45:20.000Z,31
2018-04-28T07:46:20.000Z,31
2018-04-28T07:47:20.000Z,31
2018-04-28T07:51:06.000Z,31
2018-04-28T07:52:06.000Z,31
2018-04-28T07:53:06.000Z,32
2018-04-28T07:54:06.000Z,32
2018-04-28T07:55:06.000Z,32
2018-04-28T07:56:06.000Z,32
2018-04-28T07:57:06.000Z,32
2018-04-28T07:58:06.000Z,32
2018-04-28T07:59:06.000Z,31
2018-04-28T08:00:06.000Z,32
2018-04-28T08:01:06.000Z,31
2018-04-28T08:02:06.000Z,31
2018-04-28T08:03:06.000Z,31
2018-04-28T08:04:06.000Z,31
2018-04-28T08:05:06.000Z,31
2018-04-28T08:06:06.000Z,31
2018-04-28T08:07:06.000Z,31
2018-04-28T08:08:06.000Z,31
2018-04-28T08:09:06.000Z,31
2018-04-28T08:11:06.000Z,31
2018-04-28T08:12:06.000Z,31
2018-04-28T08:13:06.000Z,31
2018-04-28T08:14:06.000Z,31
2018-04-28T08:15:06.000Z,31
2018-04-28T08:16:06.000Z,31
2018-04-28T08:17:06.000Z,31
2018-04-28T08:18:06.000Z,31
2018-04-28T08:19:06.000Z,31
2018-04-28T08:20:06.000Z,31
2018-04-28T08:21:06.000Z,31
2018-04-28T08:22:06.000Z,31
2018-04-28T08:23:06.000Z,31
2018-04-28T08:24:06.000Z,31
2018-04-28T08:25:06.000Z,31
2018-04-28T08:26:06.000Z,31
2018-04-28T08:27:06.000Z,31
2018-04-28T08:28:06.000Z,31
2018-04-28T08:29:06.000Z,31
2018-04-28T08:30:06.000Z,31
2018-04-28T08:31:06.000Z,31
2018-04-28T08:32:06.000Z,31
2018-04-28T08:33:06.000Z,31
2018-04-28T08:34:06.000Z,31
2018-04-28T08:35:06.000Z,31
2018-04-28T08:36:06.000Z,31
2018-04-28T08:38:06.000Z,30
2018-04-28T08:39:06.000Z,31
2018-04-28T08:40:06.000Z,30
2018-04-28T08:41:06.000Z,30
2018-04-28T08:42:06.000Z,30
2018-04-28T08:43:06.000Z,30
2018-04-28T08:44:06.000Z,30
2018-04-28T08:45:06.000Z,30
2018-04-28T08:46:06.000Z,30
2018-04-28T08:47:06.000Z,30
2018-04-28T08:48:06.000Z,30
2018-04-28T08:50:06.000Z,30
2018-04-28T08:51:06.000Z,30
2018-04-28T08:52:06.000Z,30
2018-04-28T08:53:06.000Z,30
2018-04-28T08:54:06.000Z,30
2018-04-28T08:55:06.000Z,31
2018-04-28T08:57:06.000Z,29
2018-04-28T08:58:06.000Z,29
2018-04-28T08:59:06.000Z,29
2018-04-28T09:00:06.000Z,29
2018-04-28T09:02:06.000Z,29
2018-04-28T09:03:06.000Z,29
2018-04-28T09:04:06.000Z,29
2018-04-28T09:05:06.000Z,29
2018-04-28T09:06:06.000Z,29
2018-04-28T09:07:06.000Z,29
2018-04-28T09:08:06.000Z,29
2018-04-28T09:10:06.000Z,29
2018-04-28T09:11:06.000Z,29
2018-04-28T09:12:06.000Z,29
2018-04-28T09:13:06.000Z,29
2018-04-28T09:14:06.000Z,29
2018-04-28T09:15:06.000Z,29
2018-04-28T09:16:06.000Z,29
2018-04-28T09:17:06.000Z,29
2018-04-28T09:19:06.000Z,29
2018-04-28T09:20:06.000Z,29
2018-04-28T09:21:06.000Z,29
2018-04-28T09:22:06.000Z,29
2018-04-28T09:23:06.000Z,29
2018-04-28T09:24:06.000Z,29
2018-04-28T09:25:06.000Z,29
2018-04-28T09:27:06.000Z,29
2018-04-28T09:28:06.000Z,30
2018-04-28T09:29:06.000Z,30
2018-04-28T09:30:06.000Z,30
2018-04-28T09:31:06.000Z,30
2018-04-28T09:32:06.000Z,30
2018-04-28T09:33:06.000Z,30
2018-04-28T09:34:06.000Z,30
2018-04-28T09:35:06.000Z,30
2018-04-28T09:36:06.000Z,30
2018-04-28T09:37:06.000Z,30
2018-04-28T09:38:06.000Z,30
2018-04-28T09:39:06.000Z,30
2018-04-28T09:40:06.000Z,30
2018-04-28T09:41:06.000Z,30
2018-04-28T09:42:06.000Z,30
2018-04-28T09:43:06.000Z,30
2018-04-28T09:44:06.000Z,30
2018-04-28T09:45:06.000Z,30
2018-04-28T09:47:06.000Z,30
2018-04-28T09:48:06.000Z,30
2018-04-28T09:49:06.000Z,30
2018-04-28T09:51:06.000Z,30
2018-04-28T09:52:06.000Z,30
2018-04-28T09:53:06.000Z,30
2018-04-28T09:54:06.000Z,30
2018-04-28T09:55:06.000Z,31
2018-04-28T09:56:06.000Z,30
2018-04-28T09:57:06.000Z,30
2018-04-28T09:58:06.000Z,30
2018-04-28T09:59:06.000Z,31
2018-04-28T10:00:06.000Z,31
2018-04-28T10:01:06.000Z,31
2018-04-28T10:02:06.000Z,31
2018-04-28T10:03:06.000Z,31
2018-04-28T10:04:06.000Z,31
2018-04-28T10:05:06.000Z,31
2018-04-28T10:06:06.000Z,31
2018-04-28T10:07:06.000Z,31
2018-04-28T10:08:06.000Z,31
2018-04-28T10:10:06.000Z,30
2018-04-28T10:12:06.000Z,30
2018-04-28T10:13:06.000Z,31
2018-04-28T10:14:06.000Z,31
2018-04-28T10:15:06.000Z,31
2018-04-28T10:16:06.000Z,31
2018-04-28T10:17:06.000Z,31
2018-04-28T10:18:06.000Z,31
2018-04-28T10:19:06.000Z,31
2018-04-28T10:20:06.000Z,31
2018-04-28T10:21:06.000Z,31
2018-04-28T10:22:06.000Z,31
2018-04-28T10:23:06.000Z,31
2018-04-28T10:25:06.000Z,31
2018-04-28T10:26:06.000Z,31
2018-04-28T10:27:06.000Z,31
2018-04-28T10:28:06.000Z,31
2018-04-28T10:29:06.000Z,31
2018-04-28T10:31:06.000Z,31
2018-04-28T10:32:06.000Z,31
2018-04-28T10:33:06.000Z,31
2018-04-28T10:34:06.000Z,31
2018-04-28T10:35:06.000Z,31
2018-04-28T10:36:06.000Z,31
2018-04-28T10:37:06.000Z,31
2018-04-28T10:38:06.000Z,31
2018-04-28T10:39:06.000Z,31
2018-04-28T10:40:06.000Z,31
2018-04-28T10:41:06.000Z,31
2018-04-28T10:42:06.000Z,31
2018-04-28T10:43:06.000Z,31
2018-04-28T10:44:06.000Z,31
2018-04-28T10:45:06.000Z,31
2018-04-28T10:46:06.000Z,31
2018-04-28T10:47:06.000Z,31
2018-04-28T10:48:06.000Z,31
2018-04-28T10:49:06.000Z,31
2018-04-28T10:50:06.000Z,31
2018-04-28T10:51:06.000Z,31
2018-04-28T10:52:06.000Z,31
2018-04-28T10:53:06.000Z,31
2018-04-28T10:54:06.000Z,31
2018-04-28T10:56:06.000Z,31
2018-04-28T10:57:06.000Z,31
2018-04-28T10:59:06.000Z,31
2018-04-28T11:00:06.000Z,31
2018-04-28T11:01:06.000Z,31
2018-04-28T11:02:06.000Z,31
2018-04-28T11:03:06.000Z,31
2018-04-28T11:05:06.000Z,31
2018-04-28T11:06:06.000Z,31
2018-04-28T11:07:06.000Z,31
2018-04-28T11:09:06.000Z,31
2018-04-28T11:10:06.000Z,32
2018-04-28T11:11:06.000Z,31
2018-04-28T11:12:06.000Z,32
2018-04-28T11:13:06.000Z,32
2018-04-28T11:14:06.000Z,32
2018-04-28T11:15:06.000Z,32
2018-04-28T11:16:06.000Z,32
2018-04-28T11:17:06.000Z,32
2018-04-28T11:18:06.000Z,31
2018-04-28T11:19:06.000Z,31
2018-04-28T11:20:06.000Z,31
2018-04-28T11:21:06.000Z,31
2018-04-28T11:22:06.000Z,31
2018-04-28T11:23:06.000Z,31
2018-04-28T11:24:06.000Z,31
2018-04-28T11:26:06.000Z,31
2018-04-28T11:27:06.000Z,31
2018-04-28T11:28:06.000Z,31
2018-04-28T11:29:06.000Z,32
2018-04-28T11:30:06.000Z,32
2018-04-28T11:31:06.000Z,32
2018-04-28T11:32:06.000Z,31
2018-04-28T11:33:06.000Z,32
2018-04-28T11:34:06.000Z,31
2018-04-28T11:35:06.000Z,32
2018-04-28T11:36:06.000Z,31
2018-04-28T11:37:06.000Z,31
2018-04-28T11:38:06.000Z,31
2018-04-28T11:39:06.000Z,31
2018-04-28T11:40:06.000Z,31
2018-04-28T11:41:06.000Z,31
2018-04-28T11:42:06.000Z,31
2018-04-28T11:43:06.000Z,31
2018-04-28T11:44:06.000Z,31
2018-04-28T11:45:06.000Z,31
2018-04-28T11:46:06.000Z,31
2018-04-28T11:47:06.000Z,31
2018-04-28T11:48:06.000Z,31
2018-04-28T11:49:06.000Z,31
2018-04-28T11:50:06.000Z,31
2018-04-28T11:51:06.000Z,31
2018-04-28T11:52:06.000Z,31
2018-04-28T11:53:06.000Z,31
2018-04-28T11:54:06.000Z,31
2018-04-28T11:55:06.000Z,31
2018-04-28T11:57:06.000Z,31
2018-04-28T11:58:06.000Z,31
2018-04-28T11:59:06.000Z,31
2018-04-28T12:00:06.000Z,31
2018-04-28T12:01:06.000Z,31
2018-04-28T12:02:06.000Z,31
2018-04-28T12:03:06.000Z,31
2018-04-28T12:04:06.000Z,31
2018-04-28T12:06:06.000Z,31
2018-04-28T12:07:06.000Z,31
2018-04-28T12:08:06.000Z,31
2018-04-28T12:09:06.000Z,31
2018-04-28T12:10:06.000Z,31
2018-04-28T12:12:06.000Z,31
2018-04-28T12:13:06.000Z,31
2018-04-28T12:14:06.000Z,31
2018-04-28T12:15:06.000Z,31
2018-04-28T12:16:06.000Z,31
2018-04-28T12:17:06.000Z,31
2018-04-28T12:18:06.000Z,31
2018-04-28T12:19:06.000Z,31
2018-04-28T12:20:06.000Z,31
2018-04-28T12:21:06.000Z,31
2018-04-28T12:22:06.000Z,31
2018-04-28T12:23:06.000Z,31
2018-04-28T12:24:06.000Z,31
2018-04-28T12:25:06.000Z,31
2018-04-28T12:26:06.000Z,31
2018-04-28T12:27:06.000Z,31
2018-04-28T12:29:06.000Z,31
2018-04-28T12:30:06.000Z,31
2018-04-28T12:32:06.000Z,31
2018-04-28T12:33:06.000Z,31
2018-04-28T12:35:06.000Z,31
2018-04-28T12:37:06.000Z,31
2018-04-28T12:38:06.000Z,31
2018-04-28T12:39:06.000Z,31
2018-04-28T12:40:06.000Z,31
2018-04-28T12:41:06.000Z,31
2018-04-28T12:42:06.000Z,31
2018-04-28T12:43:06.000Z,31
2018-04-28T12:45:06.000Z,31
2018-04-28T12:46:06.000Z,31
2018-04-28T12:47:06.000Z,31
2018-04-28T12:48:06.000Z,31
2018-04-28T12:49:06.000Z,31
2018-04-28T12:51:06.000Z,31
2018-04-28T12:52:06.000Z,31
2018-04-28T12:54:06.000Z,31
2018-04-28T12:55:06.000Z,31
2018-04-28T12:56:06.000Z,31
2018-04-28T12:58:06.000Z,31
2018-04-28T12:59:06.000Z,31
2018-04-28T13:00:06.000Z,31
2018-04-28T13:01:06.000Z,32
2018-04-28T13:02:06.000Z,31
2018-04-28T13:03:06.000Z,32
2018-04-28T13:04:06.000Z,32
2018-04-28T13:05:06.000Z,32
2018-04-28T13:06:06.000Z,32
2018-04-28T13:07:06.000Z,32
2018-04-28T13:08:06.000Z,32
2018-04-28T13:09:06.000Z,32
2018-04-28T13:10:06.000Z,32
2018-04-28T13:11:06.000Z,32
2018-04-28T13:12:06.000Z,31
2018-04-28T13:13:06.000Z,32
2018-04-28T13:14:06.000Z,32
2018-04-28T13:16:06.000Z,31
2018-04-28T13:17:06.000Z,32
2018-04-28T13:19:06.000Z,31
2018-04-28T13:20:06.000Z,31
2018-04-28T13:21:06.000Z,31
2018-04-28T13:22:06.000Z,31
2018-04-28T13:23:06.000Z,31
2018-04-28T13:24:06.000Z,31
2018-04-28T13:25:06.000Z,31
2018-04-28T13:26:06.000Z,31
2018-04-28T13:28:06.000Z,31
2018-04-28T13:29:06.000Z,32
2018-04-28T13:30:06.000Z,32
2018-04-28T13:31:06.000Z,31
2018-04-28T13:32:06.000Z,32
2018-04-28T13:34:06.000Z,31
2018-04-28T13:35:06.000Z,32
2018-04-28T13:36:06.000Z,32
2018-04-28T13:37:06.000Z,32
2018-04-28T13:38:06.000Z,32
2018-04-28T13:39:06.000Z,32
2018-04-28T13:40:06.000Z,32
2018-04-28T13:41:06.000Z,32
2018-04-28T13:42:06.000Z,32
2018-04-28T13:43:06.000Z,32
2018-04-28T13:44:06.000Z,32
2018-04-28T13:45:06.000Z,32
2018-04-28T13:46:06.000Z,32
2018-04-28T13:47:06.000Z,32
2018-04-28T13:48:06.000Z,32
2018-04-28T13:49:06.000Z,32
2018-04-28T13:51:06.000Z,31
2018-04-28T13:52:06.000Z,32
2018-04-28T13:53:06.000Z,31
2018-04-28T13:54:06.000Z,32
2018-04-28T13:55:06.000Z,32
2018-04-28T13:56:06.000Z,32
2018-04-28T13:57:06.000Z,32
2018-04-28T13:59:06.000Z,31
2018-04-28T14:00:06.000Z,31
2018-04-28T14:01:06.000Z,31
2018-04-28T14:03:06.000Z,31
2018-04-28T14:04:06.000Z,31
2018-04-28T14:05:06.000Z,31
2018-04-28T14:06:06.000Z,31
2018-04-28T14:07:06.000Z,31
2018-04-28T14:08:06.000Z,31
2018-04-28T14:09:06.000Z,31
2018-04-28T14:10:06.000Z,31
2018-04-28T14:11:06.000Z,30
2018-04-28T14:13:06.000Z,30
2018-04-28T14:14:06.000Z,30
2018-04-28T14:15:06.000Z,31
2018-04-28T14:16:06.000Z,30
2018-04-28T14:17:06.000Z,30
2018-04-28T14:18:06.000Z,30
2018-04-28T14:19:06.000Z,30
2018-04-28T14:20:06.000Z,30
2018-04-28T14:21:06.000Z,30
2018-04-28T14:22:06.000Z,30
2018-04-28T14:23:06.000Z,30
2018-04-28T14:24:06.000Z,30
2018-04-28T14:25:06.000Z,30
2018-04-28T14:26:06.000Z,30
2018-04-28T14:27:06.000Z,30
2018-04-28T14:29:06.000Z,30
2018-04-28T14:30:06.000Z,30
2018-04-28T14:31:06.000Z,30
2018-04-28T14:32:06.000Z,30
2018-04-28T14:33:06.000Z,30
2018-04-28T14:34:06.000Z,30
2018-04-28T14:35:06.000Z,30
2018-04-28T14:36:06.000Z,30
2018-04-28T14:37:06.000Z,30
2018-04-28T14:38:06.000Z,30
2018-04-28T14:39:06.000Z,30
2018-04-28T14:40:06.000Z,30
2018-04-28T14:42:06.000Z,30
2018-04-28T14:43:05.000Z,30
2018-04-28T14:45:05.000Z,30
2018-04-28T14:46:05.000Z,30
2018-04-28T14:47:05.000Z,30
2018-04-28T14:49:05.000Z,29
2018-04-28T14:50:05.000Z,30
2018-04-28T14:52:05.000Z,29
2018-04-28T14:53:05.000Z,29
2018-04-28T14:55:05.000Z,29
2018-04-28T14:56:05.000Z,29
2018-04-28T14:57:05.000Z,29
2018-04-28T14:58:05.000Z,29
2018-04-28T15:00:05.000Z,29
2018-04-28T15:01:05.000Z,29
2018-04-28T15:02:05.000Z,29
2018-04-28T15:03:05.000Z,29
2018-04-28T15:04:05.000Z,29
2018-04-28T15:06:05.000Z,29
2018-04-28T15:07:05.000Z,29
2018-04-28T15:08:05.000Z,29
2018-04-28T15:09:05.000Z,29
2018-04-28T15:10:05.000Z,29
2018-04-28T15:11:05.000Z,29
2018-04-28T15:12:05.000Z,29
2018-04-28T15:13:05.000Z,28
2018-04-28T15:14:05.000Z,29
2018-04-28T15:15:05.000Z,28
2018-04-28T15:16:05.000Z,29
2018-04-28T15:17:05.000Z,29
2018-04-28T15:18:05.000Z,29
2018-04-28T15:19:05.000Z,28
2018-04-28T15:20:05.000Z,28
2018-04-28T15:21:05.000Z,28
2018-04-28T15:22:05.000Z,28
2018-04-28T15:24:05.000Z,28
2018-04-28T15:25:05.000Z,29
2018-04-28T15:26:05.000Z,29
2018-04-28T15:27:05.000Z,29
2018-04-28T15:28:05.000Z,29
2018-04-28T15:29:05.000Z,29
2018-04-28T15:31:05.000Z,29
2018-04-28T15:32:05.000Z,29
2018-04-28T15:33:05.000Z,29
2018-04-28T15:34:05.000Z,29
2018-04-28T15:35:05.000Z,29
2018-04-28T15:36:05.000Z,29
2018-04-28T15:37:05.000Z,29
2018-04-28T15:38:05.000Z,29
2018-04-28T15:39:05.000Z,28
2018-04-28T15:40:05.000Z,29
2018-04-28T15:41:05.000Z,29
2018-04-28T15:42:05.000Z,29
2018-04-28T15:43:05.000Z,29
2018-04-28T15:44:05.000Z,29
2018-04-28T15:45:05.000Z,28
2018-04-28T15:47:06.000Z,28
2018-04-28T15:48:06.000Z,29
2018-04-28T15:49:06.000Z,29